sensor_id;sensor_type;location;lat;lon;timestamp;P1;durP1;ratioP1;P2;durP2;ratioP2
60014;SDS011;45867;52.480;6.056;2022-09-20T00:00:40;11.55;;;2.42;;
60014;SDS011;45867;52.480;6.056;2022-09-20T00:03:05;10.63;;;1.88;;
60014;SDS011;45867;52.480;6.056;2022-09-20T00:05:33;5.90;;;1.45;;
60014;SDS011;45867;52.480;6.056;2022-09-20T00:08:00;7.78;;;1.77;;
60014;SDS011;45867;52.480;6.056;2022-09-20T00:10:25;12.63;;;1.55;;
60014;SDS011;45867;52.480;6.056;2022-09-20T00:12:52;12.88;;;1.45;;
60014;SDS011;45867;52.480;6.056;2022-09-20T00:15:17;5.90;;;1.52;;
60014;SDS011;45867;52.480;6.056;2022-09-20T00:17:42;13.18;;;1.75;;
60014;SDS011;45867;52.480;6.056;2022-09-20T00:20:08;6.95;;;1.70;;
60014;SDS011;45867;52.480;6.056;2022-09-20T00:22:33;6.85;;;1.50;;
60014;SDS011;45867;52.480;6.056;2022-09-20T00:24:58;6.80;;;2.15;;
60014;SDS011;45867;52.480;6.056;2022-09-20T00:27:24;5.50;;;1.40;;
60014;SDS011;45867;52.480;6.056;2022-09-20T00:29:49;5.57;;;1.67;;
60014;SDS011;45867;52.480;6.056;2022-09-20T00:32:14;19.20;;;2.05;;
60014;SDS011;45867;52.480;6.056;2022-09-20T00:34:39;11.40;;;2.10;;
60014;SDS011;45867;52.480;6.056;2022-09-20T00:37:23;6.75;;;1.75;;
60014;SDS011;45867;52.480;6.056;2022-09-20T00:39:48;7.80;;;1.55;;
60014;SDS011;45867;52.480;6.056;2022-09-20T00:42:14;6.20;;;1.80;;
60014;SDS011;45867;52.480;6.056;2022-09-20T00:44:44;5.15;;;1.45;;
60014;SDS011;45867;52.480;6.056;2022-09-20T00:47:12;2.83;;;1.20;;
60014;SDS011;45867;52.480;6.056;2022-09-20T00:49:38;8.48;;;1.95;;
60014;SDS011;45867;52.480;6.056;2022-09-20T00:52:03;12.55;;;2.08;;
60014;SDS011;45867;52.480;6.056;2022-09-20T00:54:29;10.10;;;1.95;;
60014;SDS011;45867;52.480;6.056;2022-09-20T00:56:55;7.30;;;1.80;;
60014;SDS011;45867;52.480;6.056;2022-09-20T00:59:21;9.10;;;1.98;;
60014;SDS011;45867;52.480;6.056;2022-09-20T01:01:55;7.28;;;1.60;;
60014;SDS011;45867;52.480;6.056;2022-09-20T01:04:22;4.40;;;1.55;;
60014;SDS011;45867;52.480;6.056;2022-09-20T01:06:50;8.18;;;1.60;;
60014;SDS011;45867;52.480;6.056;2022-09-20T01:09:16;17.45;;;2.00;;
60014;SDS011;45867;52.480;6.056;2022-09-20T01:11:41;8.38;;;1.65;;
60014;SDS011;45867;52.480;6.056;2022-09-20T01:14:07;9.75;;;2.17;;
60014;SDS011;45867;52.480;6.056;2022-09-20T01:16:33;10.02;;;2.05;;
60014;SDS011;45867;52.480;6.056;2022-09-20T01:18:59;17.08;;;1.95;;
60014;SDS011;45867;52.480;6.056;2022-09-20T01:21:26;3.45;;;1.33;;
60014;SDS011;45867;52.480;6.056;2022-09-20T01:23:59;9.82;;;1.77;;
60014;SDS011;45867;52.480;6.056;2022-09-20T01:29:17;9.60;;;1.77;;
60014;SDS011;45867;52.480;6.056;2022-09-20T01:31:51;13.20;;;1.92;;
60014;SDS011;45867;52.480;6.056;2022-09-20T01:34:20;6.93;;;1.80;;
60014;SDS011;45867;52.480;6.056;2022-09-20T01:36:52;8.60;;;1.52;;
60014;SDS011;45867;52.480;6.056;2022-09-20T01:42:07;10.18;;;1.70;;
60014;SDS011;45867;52.480;6.056;2022-09-20T01:44:37;13.40;;;1.70;;
60014;SDS011;45867;52.480;6.056;2022-09-20T01:49:51;16.40;;;2.17;;
60014;SDS011;45867;52.480;6.056;2022-09-20T01:55:24;10.40;;;1.67;;
60014;SDS011;45867;52.480;6.056;2022-09-20T01:57:50;9.07;;;1.87;;
60014;SDS011;45867;52.480;6.056;2022-09-20T02:00:24;5.15;;;2.05;;
60014;SDS011;45867;52.480;6.056;2022-09-20T02:07:57;8.02;;;1.67;;
60014;SDS011;45867;52.480;6.056;2022-09-20T02:10:37;6.28;;;1.70;;
60014;SDS011;45867;52.480;6.056;2022-09-20T02:20:49;6.22;;;1.83;;
60014;SDS011;45867;52.480;6.056;2022-09-20T02:23:32;8.85;;;1.90;;
60014;SDS011;45867;52.480;6.056;2022-09-20T02:28:30;10.20;;;1.80;;
60014;SDS011;45867;52.480;6.056;2022-09-20T02:44:07;14.27;;;2.28;;
60014;SDS011;45867;52.480;6.056;2022-09-20T02:46:37;7.85;;;1.95;;
60014;SDS011;45867;52.480;6.056;2022-09-20T02:51:38;8.38;;;2.28;;
60014;SDS011;45867;52.480;6.056;2022-09-20T02:56:54;12.55;;;1.83;;
60014;SDS011;45867;52.480;6.056;2022-09-20T02:59:24;10.75;;;1.70;;
60014;SDS011;45867;52.480;6.056;2022-09-20T03:04:19;10.30;;;2.00;;
60014;SDS011;45867;52.480;6.056;2022-09-20T03:09:25;9.32;;;1.90;;
60014;SDS011;45867;52.480;6.056;2022-09-20T03:14:23;10.93;;;1.90;;
60014;SDS011;45867;52.480;6.056;2022-09-20T03:17:03;7.45;;;2.10;;
60014;SDS011;45867;52.480;6.056;2022-09-20T03:19:46;10.45;;;1.65;;
60014;SDS011;45867;52.480;6.056;2022-09-20T03:22:27;10.20;;;1.88;;
60014;SDS011;45867;52.480;6.056;2022-09-20T03:32:57;7.68;;;1.88;;
60014;SDS011;45867;52.480;6.056;2022-09-20T03:38:00;5.90;;;1.60;;
60014;SDS011;45867;52.480;6.056;2022-09-20T03:43:28;16.27;;;2.20;;
60014;SDS011;45867;52.480;6.056;2022-09-20T04:06:37;10.20;;;2.30;;
60014;SDS011;45867;52.480;6.056;2022-09-20T04:11:52;16.52;;;2.22;;
60014;SDS011;45867;52.480;6.056;2022-09-20T04:14:31;4.65;;;2.28;;
60014;SDS011;45867;52.480;6.056;2022-09-20T04:16:59;8.90;;;2.10;;
60014;SDS011;45867;52.480;6.056;2022-09-20T04:19:37;13.93;;;2.28;;
60014;SDS011;45867;52.480;6.056;2022-09-20T04:22:06;6.65;;;2.00;;
60014;SDS011;45867;52.480;6.056;2022-09-20T04:27:19;10.82;;;2.15;;
60014;SDS011;45867;52.480;6.056;2022-09-20T04:30:32;8.25;;;2.42;;
60014;SDS011;45867;52.480;6.056;2022-09-20T04:32:40;9.05;;;2.40;;
60014;SDS011;45867;52.480;6.056;2022-09-20T04:38:11;11.80;;;2.42;;
60014;SDS011;45867;52.480;6.056;2022-09-20T04:40:46;9.77;;;2.17;;
60014;SDS011;45867;52.480;6.056;2022-09-20T04:43:39;13.98;;;2.80;;
60014;SDS011;45867;52.480;6.056;2022-09-20T04:49:11;12.48;;;3.38;;
60014;SDS011;45867;52.480;6.056;2022-09-20T05:00:03;6.22;;;2.13;;
60014;SDS011;45867;52.480;6.056;2022-09-20T05:02:53;5.30;;;2.20;;
60014;SDS011;45867;52.480;6.056;2022-09-20T05:05:31;11.18;;;2.40;;
60014;SDS011;45867;52.480;6.056;2022-09-20T05:11:16;6.95;;;2.63;;
60014;SDS011;45867;52.480;6.056;2022-09-20T05:15:58;16.15;;;2.47;;
60014;SDS011;45867;52.480;6.056;2022-09-20T05:21:11;10.13;;;2.85;;
60014;SDS011;45867;52.480;6.056;2022-09-20T05:33:54;15.52;;;2.70;;
60014;SDS011;45867;52.480;6.056;2022-09-20T05:49:23;9.68;;;2.55;;
60014;SDS011;45867;52.480;6.056;2022-09-20T05:51:58;9.82;;;2.42;;
60014;SDS011;45867;52.480;6.056;2022-09-20T06:00:03;9.77;;;2.75;;
60014;SDS011;45867;52.480;6.056;2022-09-20T06:02:33;14.32;;;2.58;;
60014;SDS011;45867;52.480;6.056;2022-09-20T06:05:02;8.65;;;2.20;;
60014;SDS011;45867;52.480;6.056;2022-09-20T06:07:41;16.33;;;2.30;;
60014;SDS011;45867;52.480;6.056;2022-09-20T06:10:13;8.65;;;2.40;;
60014;SDS011;45867;52.480;6.056;2022-09-20T06:12:56;7.22;;;2.30;;
60014;SDS011;45867;52.480;6.056;2022-09-20T06:15:40;12.55;;;3.08;;
60014;SDS011;45867;52.480;6.056;2022-09-20T06:23:20;9.85;;;1.95;;
60014;SDS011;45867;52.480;6.056;2022-09-20T06:25:50;15.70;;;2.45;;
60014;SDS011;45867;52.480;6.056;2022-09-20T06:28:20;9.32;;;2.40;;
60014;SDS011;45867;52.480;6.056;2022-09-20T06:30:47;7.68;;;2.10;;
60014;SDS011;45867;52.480;6.056;2022-09-20T06:33:17;5.65;;;1.83;;
60014;SDS011;45867;52.480;6.056;2022-09-20T06:35:44;6.57;;;2.03;;
60014;SDS011;45867;52.480;6.056;2022-09-20T06:38:15;9.32;;;2.22;;
60014;SDS011;45867;52.480;6.056;2022-09-20T06:41:03;12.60;;;2.70;;
60014;SDS011;45867;52.480;6.056;2022-09-20T06:43:47;9.98;;;2.53;;
60014;SDS011;45867;52.480;6.056;2022-09-20T06:46:13;7.57;;;2.30;;
60014;SDS011;45867;52.480;6.056;2022-09-20T06:48:40;10.23;;;2.38;;
60014;SDS011;45867;52.480;6.056;2022-09-20T06:51:06;7.38;;;1.80;;
60014;SDS011;45867;52.480;6.056;2022-09-20T06:53:33;9.80;;;2.88;;
60014;SDS011;45867;52.480;6.056;2022-09-20T06:56:00;11.60;;;2.30;;
60014;SDS011;45867;52.480;6.056;2022-09-20T06:58:25;6.32;;;2.20;;
60014;SDS011;45867;52.480;6.056;2022-09-20T07:00:51;3.85;;;1.60;;
60014;SDS011;45867;52.480;6.056;2022-09-20T07:03:17;5.47;;;2.00;;
60014;SDS011;45867;52.480;6.056;2022-09-20T07:05:43;6.18;;;1.83;;
60014;SDS011;45867;52.480;6.056;2022-09-20T07:08:08;19.73;;;2.70;;
60014;SDS011;45867;52.480;6.056;2022-09-20T07:10:34;9.65;;;2.10;;
60014;SDS011;45867;52.480;6.056;2022-09-20T07:13:00;6.88;;;2.25;;
60014;SDS011;45867;52.480;6.056;2022-09-20T07:15:32;4.13;;;1.63;;
60014;SDS011;45867;52.480;6.056;2022-09-20T07:17:58;5.82;;;1.50;;
60014;SDS011;45867;52.480;6.056;2022-09-20T07:20:26;3.38;;;1.40;;
60014;SDS011;45867;52.480;6.056;2022-09-20T07:22:51;10.82;;;2.03;;
60014;SDS011;45867;52.480;6.056;2022-09-20T07:25:18;7.10;;;2.08;;
60014;SDS011;45867;52.480;6.056;2022-09-20T07:27:44;7.97;;;1.73;;
60014;SDS011;45867;52.480;6.056;2022-09-20T07:30:11;4.63;;;1.42;;
60014;SDS011;45867;52.480;6.056;2022-09-20T07:32:39;7.75;;;1.42;;
60014;SDS011;45867;52.480;6.056;2022-09-20T07:35:08;9.45;;;1.77;;
60014;SDS011;45867;52.480;6.056;2022-09-20T07:37:33;8.02;;;1.80;;
60014;SDS011;45867;52.480;6.056;2022-09-20T07:39:59;6.97;;;1.27;;
60014;SDS011;45867;52.480;6.056;2022-09-20T07:42:24;7.75;;;1.48;;
60014;SDS011;45867;52.480;6.056;2022-09-20T07:44:49;9.38;;;1.60;;
60014;SDS011;45867;52.480;6.056;2022-09-20T07:47:15;8.48;;;2.03;;
60014;SDS011;45867;52.480;6.056;2022-09-20T07:49:40;4.85;;;1.30;;
60014;SDS011;45867;52.480;6.056;2022-09-20T07:52:05;4.43;;;1.65;;
60014;SDS011;45867;52.480;6.056;2022-09-20T07:54:32;7.10;;;1.73;;
60014;SDS011;45867;52.480;6.056;2022-09-20T07:56:57;6.30;;;1.63;;
60014;SDS011;45867;52.480;6.056;2022-09-20T07:59:25;9.98;;;1.45;;
60014;SDS011;45867;52.480;6.056;2022-09-20T08:01:51;5.25;;;1.52;;
60014;SDS011;45867;52.480;6.056;2022-09-20T08:04:16;5.72;;;2.00;;
60014;SDS011;45867;52.480;6.056;2022-09-20T08:06:42;5.00;;;1.60;;
60014;SDS011;45867;52.480;6.056;2022-09-20T08:09:25;9.80;;;2.75;;
60014;SDS011;45867;52.480;6.056;2022-09-20T08:11:50;4.38;;;0.98;;
60014;SDS011;45867;52.480;6.056;2022-09-20T08:14:19;9.43;;;1.58;;
60014;SDS011;45867;52.480;6.056;2022-09-20T08:16:45;4.93;;;1.10;;
60014;SDS011;45867;52.480;6.056;2022-09-20T08:19:29;5.88;;;1.60;;
60014;SDS011;45867;52.480;6.056;2022-09-20T08:21:58;6.05;;;1.30;;
60014;SDS011;45867;52.480;6.056;2022-09-20T08:24:24;4.68;;;1.20;;
60014;SDS011;45867;52.480;6.056;2022-09-20T08:26:50;7.05;;;1.58;;
60014;SDS011;45867;52.480;6.056;2022-09-20T08:29:16;8.70;;;1.40;;
60014;SDS011;45867;52.480;6.056;2022-09-20T08:31:41;3.70;;;1.02;;
60014;SDS011;45867;52.480;6.056;2022-09-20T08:34:07;4.00;;;1.17;;
60014;SDS011;45867;52.480;6.056;2022-09-20T08:36:34;7.18;;;1.13;;
60014;SDS011;45867;52.480;6.056;2022-09-20T08:38:59;24.75;;;1.58;;
60014;SDS011;45867;52.480;6.056;2022-09-20T08:43:54;5.95;;;1.35;;
60014;SDS011;45867;52.480;6.056;2022-09-20T08:46:24;6.95;;;1.35;;
60014;SDS011;45867;52.480;6.056;2022-09-20T08:48:51;5.88;;;1.50;;
60014;SDS011;45867;52.480;6.056;2022-09-20T08:51:16;6.57;;;1.13;;
60014;SDS011;45867;52.480;6.056;2022-09-20T08:53:47;2.47;;;0.95;;
60014;SDS011;45867;52.480;6.056;2022-09-20T08:56:14;4.95;;;1.33;;
60014;SDS011;45867;52.480;6.056;2022-09-20T08:58:40;6.38;;;1.02;;
60014;SDS011;45867;52.480;6.056;2022-09-20T09:01:06;5.55;;;1.10;;
60014;SDS011;45867;52.480;6.056;2022-09-20T09:03:31;7.03;;;1.10;;
60014;SDS011;45867;52.480;6.056;2022-09-20T09:05:57;6.40;;;1.10;;
60014;SDS011;45867;52.480;6.056;2022-09-20T09:08:24;6.15;;;1.02;;
60014;SDS011;45867;52.480;6.056;2022-09-20T09:10:58;5.50;;;1.00;;
60014;SDS011;45867;52.480;6.056;2022-09-20T09:13:25;5.10;;;1.10;;
60014;SDS011;45867;52.480;6.056;2022-09-20T09:16:13;5.55;;;1.10;;
60014;SDS011;45867;52.480;6.056;2022-09-20T09:18:39;4.53;;;1.08;;
60014;SDS011;45867;52.480;6.056;2022-09-20T09:21:05;6.78;;;1.23;;
60014;SDS011;45867;52.480;6.056;2022-09-20T09:23:37;11.93;;;1.30;;
60014;SDS011;45867;52.480;6.056;2022-09-20T09:26:03;8.48;;;1.60;;
60014;SDS011;45867;52.480;6.056;2022-09-20T09:28:29;8.88;;;1.02;;
60014;SDS011;45867;52.480;6.056;2022-09-20T09:33:26;6.70;;;1.60;;
60014;SDS011;45867;52.480;6.056;2022-09-20T09:38:18;5.43;;;1.40;;
60014;SDS011;45867;52.480;6.056;2022-09-20T09:40:55;5.05;;;0.85;;
60014;SDS011;45867;52.480;6.056;2022-09-20T09:43:23;6.63;;;1.60;;
60014;SDS011;45867;52.480;6.056;2022-09-20T09:45:51;5.53;;;1.15;;
60014;SDS011;45867;52.480;6.056;2022-09-20T09:48:22;10.93;;;1.83;;
60014;SDS011;45867;52.480;6.056;2022-09-20T09:50:48;6.00;;;1.20;;
60014;SDS011;45867;52.480;6.056;2022-09-20T09:53:22;6.70;;;1.42;;
60014;SDS011;45867;52.480;6.056;2022-09-20T09:58:32;10.33;;;1.50;;
60014;SDS011;45867;52.480;6.056;2022-09-20T10:00:59;23.20;;;2.13;;
60014;SDS011;45867;52.480;6.056;2022-09-20T10:03:47;14.38;;;2.03;;
60014;SDS011;45867;52.480;6.056;2022-09-20T10:24:54;11.93;;;1.67;;
60014;SDS011;45867;52.480;6.056;2022-09-20T10:27:27;11.20;;;1.65;;
60014;SDS011;45867;52.480;6.056;2022-09-20T10:30:02;2.67;;;1.00;;
60014;SDS011;45867;52.480;6.056;2022-09-20T10:40:52;7.18;;;1.42;;
60014;SDS011;45867;52.480;6.056;2022-09-20T10:46:12;10.35;;;1.60;;
60014;SDS011;45867;52.480;6.056;2022-09-20T10:48:46;8.27;;;1.80;;
60014;SDS011;45867;52.480;6.056;2022-09-20T10:51:27;10.65;;;1.25;;
60014;SDS011;45867;52.480;6.056;2022-09-20T10:56:37;4.70;;;1.13;;
60014;SDS011;45867;52.480;6.056;2022-09-20T11:04:23;7.43;;;1.45;;
60014;SDS011;45867;52.480;6.056;2022-09-20T11:09:33;7.28;;;1.50;;
60014;SDS011;45867;52.480;6.056;2022-09-20T11:17:40;31.95;;;2.25;;
60014;SDS011;45867;52.480;6.056;2022-09-20T11:20:16;23.25;;;2.00;;
60014;SDS011;45867;52.480;6.056;2022-09-20T11:22:43;5.43;;;1.08;;
60014;SDS011;45867;52.480;6.056;2022-09-20T11:27:39;5.07;;;1.40;;
60014;SDS011;45867;52.480;6.056;2022-09-20T11:37:35;4.70;;;1.25;;
60014;SDS011;45867;52.480;6.056;2022-09-20T11:40:14;7.07;;;1.25;;
60014;SDS011;45867;52.480;6.056;2022-09-20T11:42:42;8.98;;;1.30;;
60014;SDS011;45867;52.480;6.056;2022-09-20T11:45:10;5.38;;;1.27;;
60014;SDS011;45867;52.480;6.056;2022-09-20T11:47:43;13.55;;;1.85;;
60014;SDS011;45867;52.480;6.056;2022-09-20T11:53:12;6.55;;;1.08;;
60014;SDS011;45867;52.480;6.056;2022-09-20T11:55:49;7.30;;;1.50;;
60014;SDS011;45867;52.480;6.056;2022-09-20T11:58:18;5.13;;;1.63;;
60014;SDS011;45867;52.480;6.056;2022-09-20T12:00:47;10.02;;;1.55;;
60014;SDS011;45867;52.480;6.056;2022-09-20T12:03:26;5.30;;;1.27;;
60014;SDS011;45867;52.480;6.056;2022-09-20T12:05:56;11.70;;;1.65;;
60014;SDS011;45867;52.480;6.056;2022-09-20T12:08:26;2.90;;;1.08;;
60014;SDS011;45867;52.480;6.056;2022-09-20T12:11:02;5.40;;;1.00;;
60014;SDS011;45867;52.480;6.056;2022-09-20T12:13:28;6.32;;;1.20;;
60014;SDS011;45867;52.480;6.056;2022-09-20T12:16:05;6.20;;;1.20;;
60014;SDS011;45867;52.480;6.056;2022-09-20T12:18:35;5.97;;;1.40;;
60014;SDS011;45867;52.480;6.056;2022-09-20T12:26:11;4.30;;;1.30;;
60014;SDS011;45867;52.480;6.056;2022-09-20T12:28:40;3.75;;;1.17;;
60014;SDS011;45867;52.480;6.056;2022-09-20T12:36:25;3.47;;;0.82;;
60014;SDS011;45867;52.480;6.056;2022-09-20T12:41:51;8.80;;;0.82;;
60014;SDS011;45867;52.480;6.056;2022-09-20T12:44:22;3.72;;;0.98;;
60014;SDS011;45867;52.480;6.056;2022-09-20T12:47:01;4.53;;;0.93;;
60014;SDS011;45867;52.480;6.056;2022-09-20T12:55:11;9.07;;;1.23;;
60014;SDS011;45867;52.480;6.056;2022-09-20T12:57:37;6.82;;;1.13;;
60014;SDS011;45867;52.480;6.056;2022-09-20T13:00:05;2.90;;;1.00;;
60014;SDS011;45867;52.480;6.056;2022-09-20T13:05:34;4.50;;;0.70;;
60014;SDS011;45867;52.480;6.056;2022-09-20T13:08:01;3.80;;;0.90;;
60014;SDS011;45867;52.480;6.056;2022-09-20T13:10:34;7.47;;;1.00;;
60014;SDS011;45867;52.480;6.056;2022-09-20T13:13:03;1.98;;;0.52;;
60014;SDS011;45867;52.480;6.056;2022-09-20T13:17:59;3.72;;;0.80;;
60014;SDS011;45867;52.480;6.056;2022-09-20T13:20:26;6.63;;;1.10;;
60014;SDS011;45867;52.480;6.056;2022-09-20T13:22:55;2.33;;;0.80;;
60014;SDS011;45867;52.480;6.056;2022-09-20T13:25:20;2.17;;;0.70;;
60014;SDS011;45867;52.480;6.056;2022-09-20T13:27:49;4.30;;;1.10;;
60014;SDS011;45867;52.480;6.056;2022-09-20T13:30:20;4.55;;;0.70;;
60014;SDS011;45867;52.480;6.056;2022-09-20T13:32:46;7.95;;;0.80;;
60014;SDS011;45867;52.480;6.056;2022-09-20T13:37:37;5.40;;;0.90;;
60014;SDS011;45867;52.480;6.056;2022-09-20T13:45:55;3.00;;;0.85;;
60014;SDS011;45867;52.480;6.056;2022-09-20T13:48:27;6.03;;;1.20;;
60014;SDS011;45867;52.480;6.056;2022-09-20T13:50:53;4.95;;;1.20;;
60014;SDS011;45867;52.480;6.056;2022-09-20T13:53:20;4.68;;;1.02;;
60014;SDS011;45867;52.480;6.056;2022-09-20T13:55:45;4.20;;;0.70;;
60014;SDS011;45867;52.480;6.056;2022-09-20T13:58:28;5.85;;;0.90;;
60014;SDS011;45867;52.480;6.056;2022-09-20T14:00:55;6.72;;;0.85;;
60014;SDS011;45867;52.480;6.056;2022-09-20T14:03:22;4.43;;;1.15;;
60014;SDS011;45867;52.480;6.056;2022-09-20T14:05:52;3.83;;;0.82;;
60014;SDS011;45867;52.480;6.056;2022-09-20T14:08:23;8.45;;;1.20;;
60014;SDS011;45867;52.480;6.056;2022-09-20T14:11:02;5.32;;;0.68;;
60014;SDS011;45867;52.480;6.056;2022-09-20T14:13:27;5.63;;;1.02;;
60014;SDS011;45867;52.480;6.056;2022-09-20T14:15:54;8.98;;;0.93;;
60014;SDS011;45867;52.480;6.056;2022-09-20T14:18:19;3.10;;;1.00;;
60014;SDS011;45867;52.480;6.056;2022-09-20T14:20:46;3.70;;;1.08;;
60014;SDS011;45867;52.480;6.056;2022-09-20T14:23:20;7.13;;;1.20;;
60014;SDS011;45867;52.480;6.056;2022-09-20T14:26:04;3.88;;;0.88;;
60014;SDS011;45867;52.480;6.056;2022-09-20T14:28:29;3.35;;;0.93;;
60014;SDS011;45867;52.480;6.056;2022-09-20T14:31:02;3.42;;;0.80;;
60014;SDS011;45867;52.480;6.056;2022-09-20T14:33:31;2.72;;;0.70;;
60014;SDS011;45867;52.480;6.056;2022-09-20T14:35:56;3.83;;;0.60;;
60014;SDS011;45867;52.480;6.056;2022-09-20T14:38:24;2.05;;;0.80;;
60014;SDS011;45867;52.480;6.056;2022-09-20T14:40:50;4.18;;;1.08;;
60014;SDS011;45867;52.480;6.056;2022-09-20T14:43:23;3.65;;;1.05;;
60014;SDS011;45867;52.480;6.056;2022-09-20T14:45:54;4.32;;;1.35;;
60014;SDS011;45867;52.480;6.056;2022-09-20T14:50:45;7.50;;;1.42;;
60014;SDS011;45867;52.480;6.056;2022-09-20T14:53:30;3.15;;;0.70;;
60014;SDS011;45867;52.480;6.056;2022-09-20T14:58:28;5.65;;;1.10;;
60014;SDS011;45867;52.480;6.056;2022-09-20T15:03:26;6.03;;;1.02;;
60014;SDS011;45867;52.480;6.056;2022-09-20T15:05:52;3.88;;;0.95;;
60014;SDS011;45867;52.480;6.056;2022-09-20T15:08:17;6.00;;;1.85;;
60014;SDS011;45867;52.480;6.056;2022-09-20T15:10:43;5.07;;;1.90;;
60014;SDS011;45867;52.480;6.056;2022-09-20T15:13:09;3.92;;;1.10;;
60014;SDS011;45867;52.480;6.056;2022-09-20T15:15:35;3.83;;;1.15;;
60014;SDS011;45867;52.480;6.056;2022-09-20T15:18:00;4.78;;;1.02;;
60014;SDS011;45867;52.480;6.056;2022-09-20T15:20:27;4.40;;;1.00;;
60014;SDS011;45867;52.480;6.056;2022-09-20T15:22:52;1.83;;;0.70;;
60014;SDS011;45867;52.480;6.056;2022-09-20T15:25:26;4.53;;;0.93;;
60014;SDS011;45867;52.480;6.056;2022-09-20T15:27:54;9.85;;;1.48;;
60014;SDS011;45867;52.480;6.056;2022-09-20T15:30:36;13.88;;;1.45;;
60014;SDS011;45867;52.480;6.056;2022-09-20T15:33:01;4.85;;;0.90;;
60014;SDS011;45867;52.480;6.056;2022-09-20T15:35:26;7.50;;;1.20;;
60014;SDS011;45867;52.480;6.056;2022-09-20T15:37:52;3.30;;;0.90;;
60014;SDS011;45867;52.480;6.056;2022-09-20T15:40:17;5.60;;;1.08;;
60014;SDS011;45867;52.480;6.056;2022-09-20T15:42:58;5.55;;;1.38;;
60014;SDS011;45867;52.480;6.056;2022-09-20T15:45:24;9.77;;;0.88;;
60014;SDS011;45867;52.480;6.056;2022-09-20T15:47:50;4.60;;;0.75;;
60014;SDS011;45867;52.480;6.056;2022-09-20T15:50:19;2.40;;;0.63;;
60014;SDS011;45867;52.480;6.056;2022-09-20T15:52:47;5.78;;;1.13;;
60014;SDS011;45867;52.480;6.056;2022-09-20T15:55:15;2.55;;;0.68;;
60014;SDS011;45867;52.480;6.056;2022-09-20T15:57:41;1.45;;;0.65;;
60014;SDS011;45867;52.480;6.056;2022-09-20T16:00:07;2.78;;;0.90;;
60014;SDS011;45867;52.480;6.056;2022-09-20T16:02:32;4.93;;;1.13;;
60014;SDS011;45867;52.480;6.056;2022-09-20T16:04:58;7.75;;;1.30;;
60014;SDS011;45867;52.480;6.056;2022-09-20T16:07:23;7.38;;;1.60;;
60014;SDS011;45867;52.480;6.056;2022-09-20T16:09:52;8.57;;;3.42;;
60014;SDS011;45867;52.480;6.056;2022-09-20T16:12:18;8.75;;;3.75;;
60014;SDS011;45867;52.480;6.056;2022-09-20T16:14:43;9.43;;;4.57;;
60014;SDS011;45867;52.480;6.056;2022-09-20T16:17:09;7.82;;;1.83;;
60014;SDS011;45867;52.480;6.056;2022-09-20T16:19:34;4.72;;;1.20;;
60014;SDS011;45867;52.480;6.056;2022-09-20T16:21:59;8.23;;;1.20;;
60014;SDS011;45867;52.480;6.056;2022-09-20T16:24:28;9.13;;;1.50;;
60014;SDS011;45867;52.480;6.056;2022-09-20T16:26:53;8.18;;;1.15;;
60014;SDS011;45867;52.480;6.056;2022-09-20T16:29:19;6.50;;;1.20;;
60014;SDS011;45867;52.480;6.056;2022-09-20T16:31:49;6.68;;;1.20;;
60014;SDS011;45867;52.480;6.056;2022-09-20T16:34:35;3.63;;;1.23;;
60014;SDS011;45867;52.480;6.056;2022-09-20T16:37:04;7.40;;;1.27;;
60014;SDS011;45867;52.480;6.056;2022-09-20T16:39:32;4.57;;;0.90;;
60014;SDS011;45867;52.480;6.056;2022-09-20T16:42:02;6.32;;;1.30;;
60014;SDS011;45867;52.480;6.056;2022-09-20T16:44:32;6.40;;;1.15;;
60014;SDS011;45867;52.480;6.056;2022-09-20T16:46:58;6.68;;;1.35;;
60014;SDS011;45867;52.480;6.056;2022-09-20T16:49:24;2.90;;;0.80;;
60014;SDS011;45867;52.480;6.056;2022-09-20T16:51:51;3.30;;;0.88;;
60014;SDS011;45867;52.480;6.056;2022-09-20T16:54:16;7.70;;;2.15;;
60014;SDS011;45867;52.480;6.056;2022-09-20T16:56:43;10.38;;;4.00;;
60014;SDS011;45867;52.480;6.056;2022-09-20T16:59:10;4.43;;;1.90;;
60014;SDS011;45867;52.480;6.056;2022-09-20T17:01:35;5.07;;;1.35;;
60014;SDS011;45867;52.480;6.056;2022-09-20T17:04:02;6.57;;;1.27;;
60014;SDS011;45867;52.480;6.056;2022-09-20T17:06:29;7.88;;;1.42;;
60014;SDS011;45867;52.480;6.056;2022-09-20T17:08:55;4.07;;;1.25;;
60014;SDS011;45867;52.480;6.056;2022-09-20T17:11:22;12.15;;;1.75;;
60014;SDS011;45867;52.480;6.056;2022-09-20T17:13:49;7.85;;;1.48;;
60014;SDS011;45867;52.480;6.056;2022-09-20T17:16:21;4.47;;;0.95;;
60014;SDS011;45867;52.480;6.056;2022-09-20T17:18:51;15.18;;;3.22;;
60014;SDS011;45867;52.480;6.056;2022-09-20T17:21:17;13.30;;;3.13;;
60014;SDS011;45867;52.480;6.056;2022-09-20T17:23:47;7.55;;;2.55;;
60014;SDS011;45867;52.480;6.056;2022-09-20T17:26:16;5.95;;;1.63;;
60014;SDS011;45867;52.480;6.056;2022-09-20T17:28:46;6.80;;;1.75;;
60014;SDS011;45867;52.480;6.056;2022-09-20T17:31:13;5.82;;;1.33;;
60014;SDS011;45867;52.480;6.056;2022-09-20T17:33:38;4.25;;;1.35;;
60014;SDS011;45867;52.480;6.056;2022-09-20T17:36:05;4.28;;;1.27;;
60014;SDS011;45867;52.480;6.056;2022-09-20T17:38:31;7.45;;;1.50;;
60014;SDS011;45867;52.480;6.056;2022-09-20T17:43:48;4.00;;;1.50;;
60014;SDS011;45867;52.480;6.056;2022-09-20T17:46:20;3.85;;;1.00;;
60014;SDS011;45867;52.480;6.056;2022-09-20T17:48:50;3.55;;;1.30;;
60014;SDS011;45867;52.480;6.056;2022-09-20T17:51:16;6.20;;;1.23;;
60014;SDS011;45867;52.480;6.056;2022-09-20T17:53:42;5.50;;;1.48;;
60014;SDS011;45867;52.480;6.056;2022-09-20T17:56:08;7.95;;;1.55;;
60014;SDS011;45867;52.480;6.056;2022-09-20T17:58:35;2.97;;;1.10;;
60014;SDS011;45867;52.480;6.056;2022-09-20T18:01:20;4.75;;;1.30;;
60014;SDS011;45867;52.480;6.056;2022-09-20T18:03:46;8.30;;;3.78;;
60014;SDS011;45867;52.480;6.056;2022-09-20T18:06:23;7.22;;;3.80;;
60014;SDS011;45867;52.480;6.056;2022-09-20T18:08:50;11.63;;;4.07;;
60014;SDS011;45867;52.480;6.056;2022-09-20T18:11:16;9.23;;;3.50;;
60014;SDS011;45867;52.480;6.056;2022-09-20T18:13:42;7.55;;;2.35;;
60014;SDS011;45867;52.480;6.056;2022-09-20T18:16:11;6.70;;;2.63;;
60014;SDS011;45867;52.480;6.056;2022-09-20T18:18:37;7.65;;;2.60;;
60014;SDS011;45867;52.480;6.056;2022-09-20T18:21:21;7.72;;;2.30;;
60014;SDS011;45867;52.480;6.056;2022-09-20T18:23:47;7.57;;;2.45;;
60014;SDS011;45867;52.480;6.056;2022-09-20T18:26:13;18.45;;;3.55;;
60014;SDS011;45867;52.480;6.056;2022-09-20T18:28:51;13.10;;;5.22;;
60014;SDS011;45867;52.480;6.056;2022-09-20T18:31:17;11.68;;;6.05;;
60014;SDS011;45867;52.480;6.056;2022-09-20T18:33:54;15.00;;;6.10;;
60014;SDS011;45867;52.480;6.056;2022-09-20T18:36:20;9.80;;;4.95;;
60014;SDS011;45867;52.480;6.056;2022-09-20T18:38:45;9.40;;;4.80;;
60014;SDS011;45867;52.480;6.056;2022-09-20T18:41:11;12.40;;;4.35;;
60014;SDS011;45867;52.480;6.056;2022-09-20T18:43:38;7.63;;;3.38;;
60014;SDS011;45867;52.480;6.056;2022-09-20T18:46:05;8.10;;;2.17;;
60014;SDS011;45867;52.480;6.056;2022-09-20T18:48:31;5.82;;;2.15;;
60014;SDS011;45867;52.480;6.056;2022-09-20T18:51:01;7.78;;;1.95;;
60014;SDS011;45867;52.480;6.056;2022-09-20T18:53:30;8.32;;;2.17;;
60014;SDS011;45867;52.480;6.056;2022-09-20T18:56:04;5.50;;;1.52;;
60014;SDS011;45867;52.480;6.056;2022-09-20T18:58:30;4.63;;;1.60;;
60014;SDS011;45867;52.480;6.056;2022-09-20T19:01:02;8.65;;;1.80;;
60014;SDS011;45867;52.480;6.056;2022-09-20T19:03:35;3.70;;;1.60;;
60014;SDS011;45867;52.480;6.056;2022-09-20T19:06:06;6.90;;;1.77;;
60014;SDS011;45867;52.480;6.056;2022-09-20T19:08:36;5.45;;;2.25;;
60014;SDS011;45867;52.480;6.056;2022-09-20T19:11:08;3.65;;;1.92;;
60014;SDS011;45867;52.480;6.056;2022-09-20T19:13:54;8.90;;;2.22;;
60014;SDS011;45867;52.480;6.056;2022-09-20T19:19:05;8.73;;;2.40;;
60014;SDS011;45867;52.480;6.056;2022-09-20T19:21:49;8.07;;;2.70;;